Terminal Aerodrome Forecast
Issued by NWS

Home | Current Version | Previous Version | Text Only | Print | Product List | Glossary On
Versions: 1 2 3 4 5 6 7 8 9 10 11 12 13 14 15 16
975
FTUS44 KLIX 121138
TAFGPT
TAF
KGPT 121138Z 1212/1312 00000KT 2SM BR SCT003 OVC018
     FM121300 26006KT 4SM BR BKN025
     FM121600 27009KT P6SM SCT070
     FM130300 34006KT P6SM FEW250
     FM130600 36010G18KT P6SM SKC=

USA.gov is the U.S. government's official web portal to all federal, state and local government web resources and services.